createdAt,value
2018-02-14T05:33:06.123Z,0
2018-02-14T05:34:15.063Z,0
2018-02-14T05:35:23.741Z,0
2018-02-14T05:36:32.427Z,0
2018-02-14T05:37:41.378Z,0
2018-02-14T05:38:50.064Z,0
2018-02-14T05:39:59.278Z,0
2018-02-14T05:41:08.225Z,0
2018-02-14T05:42:17.179Z,0
2018-02-14T05:43:26.403Z,0
2018-02-14T05:44:35.439Z,0
2018-02-14T05:45:44.123Z,0
2018-02-14T05:46:52.811Z,0
2018-02-14T05:48:01.770Z,0
2018-02-14T05:49:11.009Z,0
2018-02-14T05:50:20.253Z,0
2018-02-14T05:51:29.208Z,0
2018-02-14T05:52:37.904Z,0
2018-02-14T05:53:46.858Z,0
2018-02-14T05:54:56.081Z,0
2018-02-14T05:56:04.772Z,0
2018-02-14T05:57:13.470Z,0
2018-02-14T05:58:22.688Z,0
2018-02-14T05:59:31.646Z,0
2018-02-14T06:00:40.600Z,0
2018-02-14T06:01:49.556Z,0
2018-02-14T06:02:58.243Z,0
2018-02-14T06:04:07.204Z,0
2018-02-14T06:05:16.158Z,0
2018-02-14T06:06:24.848Z,0
2018-02-14T06:07:33.806Z,0
2018-02-14T06:08:43.034Z,0
2018-02-14T06:09:51.719Z,0
2018-02-14T06:11:00.669Z,0
2018-02-14T06:12:09.626Z,0
2018-02-14T06:13:18.581Z,0
2018-02-14T06:14:27.536Z,0
2018-02-14T06:15:36.762Z,0
2018-02-14T06:16:45.717Z,0
2018-02-14T06:17:54.671Z,0
2018-02-14T06:19:03.628Z,0
2018-02-14T06:20:12.317Z,0
2018-02-14T06:21:21.540Z,0
2018-02-14T06:22:30.230Z,0
2018-02-14T06:23:38.917Z,0
2018-02-14T06:24:47.605Z,0
2018-02-14T06:25:56.292Z,0
2018-02-14T06:27:04.978Z,0
2018-02-14T06:28:13.670Z,0
2018-02-14T06:29:22.357Z,0
2018-02-14T06:30:31.313Z,0
2018-02-14T06:31:40.005Z,0
2018-02-14T06:32:48.692Z,0
2018-02-14T06:33:57.378Z,0
2018-02-14T06:35:06.874Z,0
2018-02-14T06:36:16.092Z,0
2018-02-14T06:37:25.049Z,0
2018-02-14T06:38:34.004Z,0
2018-02-14T06:39:42.966Z,0
2018-02-14T06:40:52.453Z,0
2018-02-14T06:42:01.405Z,0
2018-02-14T06:43:10.359Z,0
2018-02-14T06:44:19.588Z,0
2018-02-14T06:45:28.542Z,0
2018-02-14T06:46:37.767Z,0
2018-02-14T06:47:46.719Z,0
2018-02-14T06:48:55.674Z,0
2018-02-14T06:50:05.170Z,0
2018-02-14T06:51:14.398Z,0
2018-02-14T06:52:23.892Z,0
2018-02-14T06:53:33.108Z,0
2018-02-14T06:54:42.064Z,0
2018-02-14T06:55:50.750Z,0
2018-02-14T06:56:59.972Z,0
2018-02-14T06:58:08.926Z,0
2018-02-14T06:59:17.878Z,0
2018-02-14T07:00:26.564Z,0
2018-02-14T07:01:35.254Z,0
2018-02-14T07:02:44.472Z,0
2018-02-14T07:03:53.430Z,0
2018-02-14T07:05:02.123Z,0
2018-02-14T07:06:10.810Z,0
2018-02-14T07:07:20.031Z,0
2018-02-14T07:08:28.985Z,0
2018-02-14T07:09:37.945Z,0
2018-02-14T07:10:46.904Z,0
2018-02-14T07:11:56.448Z,0
2018-02-14T07:13:05.402Z,0
2018-02-14T07:14:14.359Z,0
2018-02-14T07:15:23.045Z,0
2018-02-14T07:16:32.002Z,0
2018-02-14T07:17:40.688Z,0
2018-02-14T07:18:49.380Z,0
2018-02-14T07:19:58.333Z,0
2018-02-14T07:21:07.570Z,0
2018-02-14T07:22:16.794Z,0
2018-02-14T07:23:25.750Z,0
2018-02-14T07:24:34.435Z,0
2018-02-14T07:25:43.136Z,0
2018-02-14T07:26:52.093Z,0
2018-02-14T07:28:00.781Z,0
2018-02-14T07:29:09.754Z,0
2018-02-14T07:30:18.433Z,0
2018-02-14T07:31:27.652Z,0
2018-02-14T07:32:36.342Z,0
2018-02-14T07:33:45.031Z,0
2018-02-14T07:34:53.985Z,0
2018-02-14T07:36:02.675Z,4
2018-02-14T07:37:11.626Z,4
2018-02-14T07:38:20.590Z,4
2018-02-14T07:39:29.808Z,4
2018-02-14T07:40:38.501Z,4
2018-02-14T07:41:47.188Z,4
2018-02-14T07:42:56.141Z,4
2018-02-14T07:44:05.101Z,4
2018-02-14T07:45:14.062Z,4
2018-02-14T07:46:23.011Z,4
2018-02-14T07:47:31.698Z,4
2018-02-14T07:48:40.656Z,0
2018-02-14T07:49:49.625Z,4
2018-02-14T07:50:59.125Z,0
2018-02-14T07:52:08.079Z,0
2018-02-14T07:53:17.032Z,0
2018-02-14T07:54:25.718Z,0
2018-02-14T07:55:34.403Z,0
2018-02-14T07:56:43.360Z,0
2018-02-14T07:57:52.585Z,0
2018-02-14T07:59:01.541Z,0
2018-02-14T08:00:10.496Z,0
2018-02-14T08:01:19.184Z,0
2018-02-14T08:02:28.404Z,0
2018-02-14T08:03:37.628Z,0
2018-02-14T08:04:46.585Z,0
2018-02-14T08:05:55.272Z,0
2018-02-14T08:07:04.229Z,0
2018-02-14T08:08:13.185Z,0
2018-02-14T08:09:21.876Z,4
2018-02-14T08:10:31.100Z,4
2018-02-14T08:11:40.058Z,4
2018-02-14T08:12:49.015Z,0
2018-02-14T08:13:57.707Z,4
2018-02-14T08:15:06.662Z,4
2018-02-14T08:16:15.626Z,0
2018-02-14T08:17:24.578Z,4
2018-02-14T08:18:33.271Z,4
2018-02-14T08:19:42.230Z,8
2018-02-14T08:20:51.535Z,4
2018-02-14T08:22:00.513Z,4
2018-02-14T08:23:09.465Z,4
2018-02-14T08:24:18.422Z,4
2018-02-14T08:25:27.377Z,4
2018-02-14T08:26:36.065Z,8
2018-02-14T08:27:44.754Z,8
2018-02-14T08:28:53.446Z,4
2018-02-14T08:30:02.412Z,8
2018-02-14T08:31:11.101Z,8
2018-02-14T08:32:20.596Z,12
2018-02-14T08:33:29.288Z,12
2018-02-14T08:34:37.977Z,12
2018-02-14T08:35:46.668Z,12
2018-02-14T08:36:55.354Z,8
2018-02-14T08:38:04.311Z,8
2018-02-14T08:39:13.000Z,8
2018-02-14T08:40:21.693Z,8
2018-02-14T08:41:30.649Z,8
2018-02-14T08:42:39.336Z,8
2018-02-14T08:43:48.034Z,4
2018-02-14T08:44:57.259Z,4
2018-02-14T08:46:06.478Z,4
2018-02-14T08:47:15.166Z,0
2018-02-14T08:48:23.858Z,0
2018-02-14T08:49:32.549Z,0
2018-02-14T08:50:41.240Z,0
2018-02-14T08:51:50.193Z,4
2018-02-14T08:52:59.421Z,4
2018-02-14T08:54:08.110Z,4
2018-02-14T08:55:16.800Z,4
2018-02-14T08:56:26.025Z,4
2018-02-14T08:57:34.980Z,4
2018-02-14T08:58:44.205Z,0
2018-02-14T08:59:53.158Z,0
2018-02-14T09:01:01.852Z,4
2018-02-14T09:02:10.811Z,4
2018-02-14T09:03:19.764Z,4
2018-02-14T09:04:28.720Z,4
2018-02-14T09:05:37.948Z,4
2018-02-14T09:06:46.902Z,4
2018-02-14T09:07:55.858Z,4
2018-02-14T09:09:04.544Z,4
2018-02-14T09:10:13.501Z,4
2018-02-14T09:11:22.190Z,4
2018-02-14T09:12:31.147Z,4
2018-02-14T09:13:40.375Z,4
2018-02-14T09:14:49.138Z,4
2018-02-14T09:15:58.091Z,0
2018-02-14T09:17:06.778Z,4
2018-02-14T09:18:15.999Z,0
2018-02-14T09:19:24.685Z,4
2018-02-14T09:20:33.910Z,4
2018-02-14T09:21:42.861Z,4
2018-02-14T09:22:51.822Z,4
2018-02-14T09:24:00.511Z,4
2018-02-14T09:25:09.466Z,4
2018-02-14T09:26:18.429Z,4
2018-02-14T09:27:27.382Z,4
2018-02-14T09:28:36.073Z,4
2018-02-14T09:29:44.760Z,0
2018-02-14T09:30:53.450Z,4
2018-02-14T09:32:02.676Z,4
2018-02-14T09:33:11.893Z,4
2018-02-14T09:34:20.846Z,4
2018-02-14T09:35:29.798Z,4
2018-02-14T09:36:38.755Z,4
2018-02-14T09:37:47.713Z,4
2018-02-14T09:38:56.397Z,4
2018-02-14T09:40:05.619Z,4
2018-02-14T09:41:14.569Z,4
2018-02-14T09:42:23.537Z,4
2018-02-14T09:43:32.513Z,4
2018-02-14T09:44:41.473Z,4
2018-02-14T09:45:50.692Z,4
2018-02-14T09:46:59.385Z,4
2018-02-14T09:48:08.339Z,8
2018-02-14T09:49:17.031Z,4
2018-02-14T09:50:26.247Z,4
2018-02-14T09:51:35.205Z,4
2018-02-14T09:52:43.896Z,4
2018-02-14T09:53:53.382Z,4
2018-02-14T09:55:02.072Z,8
2018-02-14T09:56:10.758Z,8
2018-02-14T09:57:19.711Z,4
2018-02-14T09:58:28.667Z,4
2018-02-14T09:59:37.364Z,8
2018-02-14T10:00:46.324Z,8
2018-02-14T10:01:55.280Z,4
2018-02-14T10:03:04.235Z,4
2018-02-14T10:04:13.451Z,8
2018-02-14T10:05:22.140Z,4
2018-02-14T10:06:30.902Z,8
2018-02-14T10:07:39.592Z,8
2018-02-14T10:08:48.816Z,8
2018-02-14T10:09:57.770Z,8
2018-02-14T10:11:06.725Z,8
2018-02-14T10:12:15.414Z,8
2018-02-14T10:13:24.103Z,8
2018-02-14T10:14:32.792Z,12
2018-02-14T10:15:41.746Z,16
2018-02-14T10:16:50.702Z,16
2018-02-14T10:18:00.191Z,16
2018-02-14T10:19:08.876Z,20
2018-02-14T10:20:17.565Z,20
2018-02-14T10:21:26.258Z,20
2018-02-14T10:22:34.944Z,24
2018-02-14T10:23:43.635Z,24
2018-02-14T10:24:52.593Z,24
2018-02-14T10:26:01.283Z,24
2018-02-14T10:27:09.973Z,24
2018-02-14T10:28:19.203Z,28
2018-02-14T10:29:27.889Z,28
2018-02-14T10:30:37.112Z,28
2018-02-14T10:31:45.805Z,32
2018-02-14T10:32:55.034Z,36
2018-02-14T10:34:04.253Z,32
2018-02-14T10:35:13.208Z,36
2018-02-14T10:36:22.162Z,40
2018-02-14T10:37:31.123Z,40
2018-02-14T10:38:40.108Z,40
2018-02-14T10:39:49.059Z,44
2018-02-14T10:40:57.747Z,40
2018-02-14T10:42:06.976Z,44
2018-02-14T10:43:15.662Z,48
2018-02-14T10:44:24.617Z,44
2018-02-14T10:45:33.305Z,48
2018-02-14T10:46:42.259Z,48
2018-02-14T10:47:51.320Z,48
2018-02-14T10:49:00.274Z,48
2018-02-14T10:50:09.237Z,52
2018-02-14T10:51:18.460Z,52
2018-02-14T10:52:27.147Z,52
2018-02-14T10:53:35.835Z,56
2018-02-14T10:54:44.598Z,56
2018-02-14T10:55:53.553Z,56
2018-02-14T10:57:02.239Z,60
2018-02-14T10:58:10.928Z,60
2018-02-14T10:59:19.888Z,60
2018-02-14T11:00:28.578Z,60
2018-02-14T11:01:37.267Z,64
2018-02-14T11:02:45.954Z,60
2018-02-14T11:03:54.645Z,60
2018-02-14T11:05:03.674Z,60
2018-02-14T11:06:12.633Z,64
2018-02-14T11:07:21.607Z,60
2018-02-14T11:08:30.274Z,64
2018-02-14T11:09:38.963Z,64
2018-02-14T11:10:48.184Z,64
2018-02-14T11:11:57.141Z,64
2018-02-14T11:13:06.098Z,68
2018-02-14T11:14:15.316Z,64
2018-02-14T11:15:24.005Z,68
2018-02-14T11:16:33.221Z,72
2018-02-14T11:17:42.440Z,68
2018-02-14T11:18:51.130Z,68
2018-02-14T11:19:59.820Z,68
2018-02-14T11:21:08.512Z,72
2018-02-14T11:22:17.196Z,72
2018-02-14T11:23:26.441Z,72
2018-02-14T11:24:35.397Z,72
2018-02-14T11:25:44.086Z,72
2018-02-14T11:26:52.779Z,76
2018-02-14T11:28:01.730Z,76
2018-02-14T11:29:10.690Z,76
2018-02-14T11:30:19.381Z,76
2018-02-14T11:31:28.072Z,76
2018-02-14T11:32:37.023Z,76
2018-02-14T11:33:46.247Z,76
2018-02-14T11:34:54.932Z,76
2018-02-14T11:36:04.056Z,76
2018-02-14T11:37:13.011Z,76
2018-02-14T11:38:21.965Z,80
2018-02-14T11:39:30.924Z,76
2018-02-14T11:40:39.880Z,80
2018-02-14T11:41:48.838Z,80
2018-02-14T11:42:57.868Z,80
2018-02-14T11:44:06.822Z,80
2018-02-14T11:45:15.773Z,80
2018-02-14T11:46:24.462Z,84
2018-02-14T11:47:33.151Z,84
2018-02-14T11:48:41.844Z,80
2018-02-14T11:49:50.804Z,76
2018-02-14T11:50:59.493Z,76
2018-02-14T11:52:08.987Z,80
2018-02-14T11:53:17.674Z,76
2018-02-14T11:54:26.629Z,72
2018-02-14T11:55:36.171Z,68
2018-02-14T11:56:44.861Z,68
2018-02-14T11:57:53.822Z,68
2018-02-14T11:59:02.509Z,72
2018-02-14T12:00:11.466Z,72
2018-02-14T12:01:20.418Z,52
2018-02-14T12:02:29.373Z,56
2018-02-14T12:03:38.060Z,72
2018-02-14T12:04:47.018Z,76
2018-02-14T12:05:55.707Z,84
2018-02-14T12:07:04.934Z,84
2018-02-14T12:08:14.162Z,80
2018-02-14T12:09:24.319Z,80
2018-02-14T12:10:33.275Z,80
2018-02-14T12:11:42.231Z,84
2018-02-14T12:12:50.923Z,76
2018-02-14T12:13:59.884Z,84
2018-02-14T12:15:08.840Z,80
2018-02-14T12:16:17.528Z,84
2018-02-14T12:17:27.017Z,76
2018-02-14T12:18:35.979Z,76
2018-02-14T12:19:44.930Z,72
2018-02-14T12:20:53.619Z,80
2018-02-14T12:22:02.575Z,80
2018-02-14T12:23:11.521Z,80
2018-02-14T12:24:20.206Z,80
2018-02-14T12:25:29.163Z,80
2018-02-14T12:26:37.849Z,76
2018-02-14T12:27:46.539Z,80
2018-02-14T12:28:55.229Z,80
2018-02-14T12:30:04.452Z,84
2018-02-14T12:31:13.673Z,84
2018-02-14T12:32:22.629Z,80
2018-02-14T12:33:31.591Z,76
2018-02-14T12:34:40.553Z,76
2018-02-14T12:35:49.240Z,80
2018-02-14T12:36:58.726Z,76
2018-02-14T12:38:07.419Z,80
2018-02-14T12:39:16.384Z,76
2018-02-14T12:40:25.339Z,76
2018-02-14T12:41:34.574Z,76
2018-02-14T12:42:43.532Z,72
2018-02-14T12:43:52.217Z,72
2018-02-14T12:45:01.178Z,72
2018-02-14T12:46:10.134Z,76
2018-02-14T12:47:19.355Z,72
2018-02-14T12:48:28.314Z,72
2018-02-14T12:49:37.008Z,72
2018-02-14T12:50:45.700Z,72
2018-02-14T12:51:54.658Z,68
2018-02-14T12:53:03.353Z,68
2018-02-14T12:54:12.314Z,68
2018-02-14T12:55:21.007Z,68
2018-02-14T12:56:29.698Z,68
2018-02-14T12:57:38.651Z,68
2018-02-14T12:58:47.335Z,68
2018-02-14T12:59:56.025Z,64
2018-02-14T13:01:05.248Z,64
2018-02-14T13:02:14.487Z,64
2018-02-14T13:03:23.175Z,60
2018-02-14T13:04:31.865Z,56
2018-02-14T13:05:40.822Z,60
2018-02-14T13:06:49.508Z,60
2018-02-14T13:07:58.462Z,56
2018-02-14T13:09:07.417Z,56
2018-02-14T13:10:16.376Z,56
2018-02-14T13:11:25.063Z,56
2018-02-14T13:12:33.762Z,52
2018-02-14T13:13:42.710Z,52
2018-02-14T13:14:52.204Z,52
2018-02-14T13:16:01.162Z,52
2018-02-14T13:17:09.852Z,52
2018-02-14T13:18:19.342Z,48
2018-02-14T13:19:28.570Z,48
2018-02-14T13:20:37.258Z,48
2018-02-14T13:21:46.217Z,48
2018-02-14T13:22:55.177Z,48
2018-02-14T13:24:04.399Z,48
2018-02-14T13:25:13.363Z,44
2018-02-14T13:26:22.056Z,44
2018-02-14T13:27:31.019Z,44
2018-02-14T13:28:39.978Z,44
2018-02-14T13:29:49.203Z,40
2018-02-14T13:30:58.167Z,40
2018-02-14T13:32:07.655Z,40
2018-02-14T13:33:16.609Z,40
2018-02-14T13:34:25.834Z,40
2018-02-14T13:35:34.787Z,40
2018-02-14T13:36:43.745Z,40
2018-02-14T13:37:52.961Z,36
2018-02-14T13:39:01.647Z,36
2018-02-14T13:40:10.335Z,36
2018-02-14T13:41:19.824Z,36
2018-02-14T13:42:29.054Z,36
2018-02-14T13:43:38.008Z,36
2018-02-14T13:44:47.237Z,32
2018-02-14T13:45:56.190Z,32
2018-02-14T13:47:05.410Z,32
2018-02-14T13:48:14.093Z,32
2018-02-14T13:49:23.046Z,32
2018-02-14T13:50:31.739Z,28
2018-02-14T13:51:40.963Z,32
2018-02-14T13:52:49.654Z,32
2018-02-14T13:53:58.345Z,28
2018-02-14T13:55:07.037Z,28
2018-02-14T13:56:16.266Z,28
2018-02-14T13:57:25.223Z,28
2018-02-14T13:58:34.177Z,28
2018-02-14T13:59:42.865Z,28
2018-02-14T14:00:51.553Z,24
2018-02-14T14:02:01.038Z,28
2018-02-14T14:03:09.995Z,28
2018-02-14T14:04:18.683Z,24
2018-02-14T14:05:27.901Z,24
2018-02-14T14:06:37.119Z,24
2018-02-14T14:07:46.341Z,24
2018-02-14T14:08:55.029Z,28
2018-02-14T14:10:03.721Z,24
2018-02-14T14:11:12.677Z,24
2018-02-14T14:12:21.366Z,24
2018-02-14T14:13:30.321Z,24
2018-02-14T14:14:39.276Z,24
2018-02-14T14:15:47.967Z,24
2018-02-14T14:16:56.657Z,20
2018-02-14T14:18:05.347Z,20
2018-02-14T14:19:14.037Z,24
2018-02-14T14:20:22.998Z,20
2018-02-14T14:21:32.222Z,20
2018-02-14T14:22:41.250Z,20
2018-02-14T14:23:50.473Z,20
2018-02-14T14:24:59.162Z,20
2018-02-14T14:26:07.853Z,20
2018-02-14T14:27:17.346Z,16
2018-02-14T14:28:26.039Z,16
2018-02-14T14:29:34.729Z,16
2018-02-14T14:30:43.954Z,16
2018-02-14T14:31:53.180Z,12
2018-02-14T14:33:01.869Z,16
2018-02-14T14:34:10.826Z,12
2018-02-14T14:35:19.514Z,16
2018-02-14T14:36:28.205Z,12
2018-02-14T14:37:37.200Z,12
2018-02-14T14:38:45.890Z,12
2018-02-14T14:39:54.576Z,12
2018-02-14T14:41:03.807Z,8
2018-02-14T14:42:12.768Z,8
2018-02-14T14:43:21.763Z,12
2018-02-14T14:44:30.722Z,12
2018-02-14T14:45:40.215Z,8
2018-02-14T14:46:49.170Z,8
2018-02-14T14:47:57.862Z,4
2018-02-14T14:49:07.086Z,8
2018-02-14T14:50:15.775Z,4
2018-02-14T14:51:24.831Z,8
2018-02-14T14:52:33.790Z,8
2018-02-14T14:53:43.015Z,4
2018-02-14T14:54:52.237Z,4
2018-02-14T14:56:00.924Z,4
2018-02-14T14:57:10.407Z,4
2018-02-14T14:58:19.100Z,4
2018-02-14T14:59:27.788Z,4
2018-02-14T15:00:36.748Z,4
2018-02-14T15:01:45.434Z,4
2018-02-14T15:02:54.126Z,4
2018-02-14T15:04:02.817Z,4
2018-02-14T15:05:12.304Z,4
2018-02-14T15:06:20.991Z,4
2018-02-14T15:07:29.679Z,4
2018-02-14T15:08:38.371Z,0
2018-02-14T15:09:47.059Z,4
2018-02-14T15:10:56.012Z,4
2018-02-14T15:12:04.965Z,4
2018-02-14T15:13:13.916Z,0
2018-02-14T15:14:22.610Z,4
2018-02-14T15:15:31.299Z,0
2018-02-14T15:16:40.256Z,4
2018-02-14T15:17:49.224Z,4
2018-02-14T15:18:58.183Z,4
2018-02-14T15:20:06.875Z,4
2018-02-14T15:21:15.831Z,4
2018-02-14T15:22:25.056Z,4
2018-02-14T15:23:34.016Z,0
2018-02-14T15:24:42.976Z,0
2018-02-14T15:25:52.200Z,0
2018-02-14T15:27:00.889Z,0
2018-02-14T15:28:10.125Z,4
2018-02-14T15:29:19.370Z,0
2018-02-14T15:30:28.062Z,0
2018-02-14T15:31:37.011Z,4
2018-02-14T15:32:45.697Z,0
2018-02-14T15:33:54.383Z,0
2018-02-14T15:35:03.072Z,0
2018-02-14T15:36:12.030Z,4
2018-02-14T15:37:20.984Z,4
2018-02-14T15:38:30.472Z,4
2018-02-14T15:39:39.161Z,4
2018-02-14T15:40:47.850Z,4
2018-02-14T15:41:56.540Z,4
2018-02-14T15:43:05.226Z,4
2018-02-14T15:44:14.444Z,4
2018-02-14T15:45:23.398Z,4
2018-02-14T15:46:32.355Z,0
2018-02-14T15:47:41.310Z,0
2018-02-14T15:48:50.266Z,0
2018-02-14T15:49:59.494Z,0
2018-02-14T15:51:08.449Z,0
2018-02-14T15:52:17.403Z,0
2018-02-14T15:53:26.093Z,0
2018-02-14T15:54:34.778Z,0
2018-02-14T15:55:44.276Z,0
2018-02-14T15:56:53.498Z,0
2018-02-14T15:58:02.188Z,0
2018-02-14T15:59:10.903Z,0
2018-02-14T16:00:19.921Z,0
2018-02-14T16:01:28.881Z,0
2018-02-14T16:02:38.380Z,0
2018-02-14T16:03:47.333Z,0
2018-02-14T16:04:56.020Z,0
2018-02-14T16:06:04.978Z,0
2018-02-14T16:07:13.931Z,4
2018-02-14T16:08:23.155Z,4
2018-02-14T16:09:31.840Z,0
2018-02-14T16:10:40.796Z,0
2018-02-14T16:11:49.488Z,0
2018-02-14T16:12:58.178Z,0
2018-02-14T16:14:06.866Z,0
2018-02-14T16:15:16.087Z,0
2018-02-14T16:16:25.042Z,0
2018-02-14T16:17:34.004Z,0
2018-02-14T16:18:43.274Z,0
2018-02-14T16:19:52.191Z,0
2018-02-14T16:21:00.889Z,0
2018-02-14T16:22:09.581Z,0
2018-02-14T16:23:18.277Z,0
2018-02-14T16:24:26.974Z,0
2018-02-14T16:25:35.936Z,4
2018-02-14T16:26:44.620Z,4
2018-02-14T16:27:53.842Z,0
2018-02-14T16:29:02.797Z,0
2018-02-14T16:30:11.761Z,0
2018-02-14T16:31:21.252Z,0
2018-02-14T16:32:30.212Z,0
2018-02-14T16:33:39.164Z,0
2018-02-14T16:34:47.851Z,0
2018-02-14T16:35:56.800Z,0
2018-02-14T16:37:06.281Z,0
2018-02-14T16:38:15.503Z,0
2018-02-14T16:39:24.182Z,0
2018-02-14T16:40:33.404Z,0
2018-02-14T16:41:42.089Z,0
2018-02-14T16:42:51.580Z,0
2018-02-14T16:44:00.807Z,0
2018-02-14T16:45:09.760Z,0
2018-02-14T16:46:18.725Z,0
2018-02-14T16:47:27.944Z,0
2018-02-14T16:48:36.847Z,0
2018-02-14T16:49:45.947Z,0
2018-02-14T16:50:54.991Z,0
2018-02-14T16:52:03.680Z,0
2018-02-14T16:53:12.640Z,0
2018-02-14T16:54:21.596Z,0
2018-02-14T16:55:30.553Z,0
2018-02-14T16:56:39.243Z,0
2018-02-14T16:57:48.205Z,0
2018-02-14T16:58:57.160Z,0
2018-02-14T17:00:06.120Z,0
2018-02-14T17:01:14.810Z,0
2018-02-14T17:02:23.499Z,0
2018-02-14T17:03:32.187Z,0
2018-02-14T17:04:40.879Z,0
2018-02-14T17:05:49.565Z,0
2018-02-14T17:06:58.522Z,0
2018-02-14T17:08:07.210Z,0
2018-02-14T17:09:16.162Z,0
2018-02-14T17:10:25.383Z,0
2018-02-14T17:11:34.070Z,0
2018-02-14T17:12:42.761Z,0
2018-02-14T17:13:51.712Z,0
2018-02-14T17:15:00.398Z,0
2018-02-14T17:16:09.090Z,0
2018-02-14T17:17:18.312Z,0
2018-02-14T17:18:27.002Z,0
2018-02-14T17:19:35.997Z,0
2018-02-14T17:20:44.683Z,0
2018-02-14T17:21:53.979Z,0
2018-02-14T17:23:02.801Z,0
2018-02-14T17:24:11.756Z,0
2018-02-14T17:25:20.447Z,0
2018-02-14T17:26:29.407Z,0
2018-02-14T17:27:38.366Z,0
2018-02-14T17:28:47.643Z,0
2018-02-14T17:29:56.331Z,0
2018-02-14T17:31:05.286Z,0
2018-02-14T17:32:14.247Z,0
2018-02-14T17:33:22.933Z,0
2018-02-14T17:34:31.888Z,0
2018-02-14T17:35:40.840Z,0
2018-02-14T17:36:49.528Z,0
2018-02-14T17:37:58.217Z,0
2018-02-14T17:39:07.439Z,0
2018-02-14T17:40:16.133Z,0
2018-02-14T17:41:24.825Z,0
2018-02-14T17:42:33.778Z,0
2018-02-14T17:43:42.470Z,0
2018-02-14T17:44:51.426Z,0
2018-02-14T17:46:00.384Z,0
2018-02-14T17:47:09.335Z,0
2018-02-14T17:48:18.026Z,0
2018-02-14T17:49:26.983Z,0
2018-02-14T17:50:35.675Z,0
2018-02-14T17:51:44.365Z,0
2018-02-14T17:52:53.588Z,0
2018-02-14T17:54:02.279Z,0
2018-02-14T17:55:11.762Z,0
2018-02-14T17:56:20.717Z,0
2018-02-14T17:57:29.673Z,0
2018-02-14T17:58:38.630Z,0
2018-02-14T17:59:47.317Z,0
2018-02-14T18:00:56.015Z,0
2018-02-14T18:02:05.263Z,0
2018-02-14T18:03:14.222Z,0
2018-02-14T18:04:23.447Z,0
2018-02-14T18:05:32.668Z,0
2018-02-14T18:06:41.624Z,0
2018-02-14T18:07:50.312Z,0
2018-02-14T18:08:59.268Z,0
2018-02-14T18:10:07.955Z,4
2018-02-14T18:11:16.644Z,0
2018-02-14T18:12:25.600Z,0
2018-02-14T18:13:34.822Z,0
2018-02-14T18:14:44.048Z,0
2018-02-14T18:15:53.001Z,0
2018-02-14T18:17:01.957Z,0
2018-02-14T18:18:10.910Z,0
2018-02-14T18:19:19.597Z,0
2018-02-14T18:20:28.287Z,0
2018-02-14T18:21:36.979Z,0
2018-02-14T18:22:45.934Z,0
2018-02-14T18:23:55.158Z,0
2018-02-14T18:25:04.114Z,0
2018-02-14T18:26:13.070Z,0
2018-02-14T18:27:22.028Z,0
2018-02-14T18:28:30.719Z,0
2018-02-14T18:29:39.677Z,0
2018-02-14T18:30:48.375Z,0
2018-02-14T18:31:57.065Z,0
2018-02-14T18:33:06.281Z,0
2018-02-14T18:34:15.242Z,0
2018-02-14T18:35:24.195Z,0
2018-02-14T18:36:32.882Z,0
2018-02-14T18:37:41.838Z,0
2018-02-14T18:38:50.528Z,0
2018-02-14T18:39:59.224Z,0
2018-02-14T18:41:08.766Z,0
2018-02-14T18:42:17.725Z,0
2018-02-14T18:43:26.684Z,0
2018-02-14T18:44:35.905Z,0
2018-02-14T18:45:45.133Z,0
2018-02-14T18:46:54.083Z,0
2018-02-14T18:48:02.775Z,0
2018-02-14T18:49:11.730Z,0
2018-02-14T18:50:20.955Z,0
2018-02-14T18:51:29.647Z,0
2018-02-14T18:52:38.607Z,0
2018-02-14T18:53:47.562Z,0
2018-02-14T18:54:56.782Z,0
2018-02-14T18:56:06.003Z,0
2018-02-14T18:57:14.691Z,0
2018-02-14T18:58:23.385Z,0
2018-02-14T18:59:32.072Z,0
2018-02-14T19:00:41.027Z,0
2018-02-14T19:01:49.716Z,0
2018-02-14T19:02:58.940Z,0
2018-02-14T19:04:08.166Z,0
2018-02-14T19:05:16.860Z,4
2018-02-14T19:06:25.815Z,0
2018-02-14T19:07:34.506Z,4
2018-02-14T19:08:43.733Z,4
2018-02-14T19:09:52.689Z,4
2018-02-14T19:11:01.379Z,4
2018-02-14T19:12:10.079Z,4
2018-02-14T19:13:18.760Z,4
2018-02-14T19:14:27.718Z,4
2018-02-14T19:15:36.678Z,4
2018-02-14T19:16:45.369Z,4
2018-02-14T19:17:54.059Z,4
2018-02-14T19:19:03.029Z,4
2018-02-14T19:20:11.708Z,4
2018-02-14T19:21:20.934Z,4
2018-02-14T19:22:29.623Z,4
2018-02-14T19:23:38.846Z,4
2018-02-14T19:24:47.821Z,4
2018-02-14T19:25:56.486Z,4
2018-02-14T19:27:05.450Z,4
2018-02-14T19:28:14.411Z,4
2018-02-14T19:29:23.099Z,4
2018-02-14T19:30:32.328Z,4
2018-02-14T19:31:42.054Z,4
2018-02-14T19:32:51.332Z,4
2018-02-14T19:34:00.286Z,0
2018-02-14T19:35:09.293Z,0
2018-02-14T19:36:18.517Z,0
2018-02-14T19:37:27.209Z,0
2018-02-14T19:38:36.162Z,0
2018-02-14T19:39:44.852Z,0
2018-02-14T19:40:53.544Z,0
2018-02-14T19:42:02.762Z,0
2018-02-14T19:43:11.720Z,0
2018-02-14T19:44:20.412Z,0
2018-02-14T19:45:29.668Z,0
2018-02-14T19:46:38.623Z,0
2018-02-14T19:47:47.313Z,0
2018-02-14T19:48:56.535Z,0
2018-02-14T19:50:05.760Z,0
2018-02-14T19:51:14.720Z,0
2018-02-14T19:52:23.410Z,0
2018-02-14T19:53:32.899Z,0
2018-02-14T19:54:41.855Z,0
2018-02-14T19:55:50.807Z,0
2018-02-14T19:56:59.763Z,0
2018-02-14T19:58:08.722Z,0
2018-02-14T19:59:17.942Z,0
2018-02-14T20:00:27.166Z,0
2018-02-14T20:01:35.854Z,0
2018-02-14T20:02:44.812Z,0
2018-02-14T20:03:53.571Z,0
2018-02-14T20:05:02.523Z,0
2018-02-14T20:06:11.214Z,0
2018-02-14T20:07:20.442Z,0
2018-02-14T20:08:29.126Z,0
2018-02-14T20:09:37.817Z,0
2018-02-14T20:10:46.773Z,0
2018-02-14T20:11:56.005Z,0
2018-02-14T20:13:04.679Z,0
2018-02-14T20:14:13.371Z,0
2018-02-14T20:15:22.056Z,0
2018-02-14T20:16:30.746Z,0
2018-02-14T20:17:39.438Z,0
2018-02-14T20:18:48.400Z,0
2018-02-14T20:19:57.089Z,0
2018-02-14T20:21:06.045Z,0
2018-02-14T20:22:15.268Z,0
2018-02-14T20:23:24.223Z,0
2018-02-14T20:24:32.912Z,4
2018-02-14T20:25:41.601Z,4
2018-02-14T20:26:50.560Z,4
2018-02-14T20:27:59.249Z,4
2018-02-14T20:29:08.203Z,4
2018-02-14T20:30:17.159Z,4
2018-02-14T20:31:26.382Z,4
2018-02-14T20:32:35.334Z,4
2018-02-14T20:33:44.298Z,4
2018-02-14T20:34:53.252Z,4
2018-02-14T20:36:01.938Z,4
2018-02-14T20:37:10.894Z,4
2018-02-14T20:38:19.585Z,4
2018-02-14T20:39:29.077Z,4
2018-02-14T20:40:38.570Z,0
2018-02-14T20:41:47.261Z,0
2018-02-14T20:42:56.480Z,0
2018-02-14T20:44:05.170Z,0
2018-02-14T20:45:14.393Z,0
2018-02-14T20:46:23.351Z,0
2018-02-14T20:47:32.038Z,0
2018-02-14T20:48:40.996Z,0
2018-02-14T20:49:50.215Z,0
2018-02-14T20:50:59.166Z,0
2018-02-14T20:52:07.859Z,0
2018-02-14T20:53:16.812Z,0
2018-02-14T20:54:26.034Z,0
2018-02-14T20:55:34.723Z,0
2018-02-14T20:56:43.678Z,0
2018-02-14T20:57:52.696Z,0
2018-02-14T20:59:01.764Z,0
2018-02-14T21:00:10.988Z,0
2018-02-14T21:01:20.018Z,0
2018-02-14T21:02:29.244Z,0
2018-02-14T21:03:38.467Z,0
2018-02-14T21:04:47.420Z,0
2018-02-14T21:05:56.111Z,0
2018-02-14T21:07:04.801Z,0
2018-02-14T21:08:13.757Z,0
2018-02-14T21:09:22.788Z,0
2018-02-14T21:10:31.743Z,0
2018-02-14T21:11:40.435Z,0
2018-02-14T21:12:49.124Z,0
2018-02-14T21:13:57.814Z,0
2018-02-14T21:15:06.773Z,0
2018-02-14T21:16:15.729Z,0
2018-02-14T21:17:24.691Z,0
2018-02-14T21:18:33.642Z,0
2018-02-14T21:19:42.334Z,0
2018-02-14T21:20:51.597Z,0
2018-02-14T21:22:01.024Z,0
2018-02-14T21:23:09.980Z,0
2018-02-14T21:24:18.938Z,0
2018-02-14T21:25:27.893Z,0
2018-02-14T21:26:37.117Z,0
2018-02-14T21:27:45.806Z,0
2018-02-14T21:28:54.494Z,0
2018-02-14T21:30:03.449Z,0
2018-02-14T21:31:12.404Z,0
2018-02-14T21:32:21.363Z,0
2018-02-14T21:33:30.320Z,0
2018-02-14T21:34:39.007Z,0
2018-02-14T21:35:47.699Z,0
2018-02-14T21:36:56.699Z,0
2018-02-14T21:38:05.388Z,0
2018-02-14T21:39:14.636Z,0
2018-02-14T21:40:23.861Z,0
2018-02-14T21:41:33.084Z,0
2018-02-14T21:42:41.774Z,0
2018-02-14T21:43:50.997Z,0
2018-02-14T21:45:00.223Z,0
2018-02-14T21:46:09.715Z,0
2018-02-14T21:47:18.402Z,0
2018-02-14T21:48:27.355Z,0
2018-02-14T21:49:36.334Z,0
2018-02-14T21:50:45.626Z,0
2018-02-14T21:51:54.587Z,0
2018-02-14T21:53:03.275Z,0
2018-02-14T21:54:12.498Z,0
2018-02-14T21:55:21.463Z,0
2018-02-14T21:56:30.418Z,0
2018-02-14T21:57:39.104Z,0
2018-02-14T21:58:47.802Z,0
2018-02-14T21:59:56.770Z,4
2018-02-14T22:01:05.451Z,0
2018-02-14T22:02:14.405Z,0
2018-02-14T22:03:23.497Z,0
2018-02-14T22:04:32.179Z,0
2018-02-14T22:05:41.722Z,0
2018-02-14T22:06:50.683Z,0
2018-02-14T22:07:59.367Z,0
2018-02-14T22:09:08.060Z,0
2018-02-14T22:10:17.019Z,0
2018-02-14T22:11:25.708Z,0
2018-02-14T22:12:34.397Z,0
2018-02-14T22:13:43.623Z,0
2018-02-14T22:14:52.846Z,0
2018-02-14T22:16:01.804Z,0
2018-02-14T22:17:11.062Z,0
2018-02-14T22:18:20.016Z,0
2018-02-14T22:19:28.969Z,0
2018-02-14T22:20:38.193Z,0
2018-02-14T22:21:47.418Z,0